Time;durP1;ratioP1;P1;durP2;ratioP2;P2;SDS_P1;SDS_P2;PMS_P1;PMS_P2;Temp;Humidity;BMP_temperature;BMP_pressure;BME280_temperature;BME280_humidity;BME280_pressure;Samples;Min_cycle;Max_cycle;Signal;HPM_P1;HPM_P2
2022/03/17 00:00:13;;;;;;;22.85;17.27;;;11.60;99.30;;;;;;4963887;28;20039;-79
2022/03/17 00:02:39;;;;;;;23.65;18.42;;;11.60;99.40;;;;;;4968330;28;20034;-79
2022/03/17 00:05:11;;;;;;;26.13;18.05;;;11.50;99.40;;;;;;4971417;28;20041;-79
2022/03/17 00:07:38;;;;;;;24.17;16.97;;;11.60;99.60;;;;;;4963045;28;20031;-79
2022/03/17 00:10:06;;;;;;;30.83;18.63;;;11.60;99.60;;;;;;4961027;28;20295;-79
2022/03/17 00:12:31;;;;;;;25.23;17.73;;;11.50;99.70;;;;;;4953825;28;20032;-79
2022/03/17 00:14:57;;;;;;;26.45;18.40;;;11.50;99.80;;;;;;4959112;28;20054;-79
2022/03/17 00:17:22;;;;;;;24.42;16.60;;;11.50;99.80;;;;;;4966641;28;20383;-79
2022/03/17 00:19:48;;;;;;;26.02;18.50;;;11.50;99.90;;;;;;4955132;28;20636;-79
2022/03/17 00:22:16;;;;;;;25.98;18.05;;;11.50;99.90;;;;;;4961950;28;20031;-79
2022/03/17 00:24:43;;;;;;;26.67;17.75;;;11.50;99.90;;;;;;4970779;28;20065;-79
2022/03/17 00:27:09;;;;;;;24.40;18.13;;;11.50;99.90;;;;;;4968189;28;20050;-79
2022/03/17 00:29:36;;;;;;;24.77;17.67;;;11.50;99.90;;;;;;4972172;28;20027;-79
2022/03/17 00:32:03;;;;;;;24.45;17.80;;;11.50;99.90;;;;;;4963706;28;20026;-79
2022/03/17 00:34:29;;;;;;;28.67;19.02;;;11.50;99.90;;;;;;4966587;28;20041;-80
2022/03/17 00:36:54;;;;;;;26.92;18.60;;;11.50;99.90;;;;;;4965459;28;20043;-80
2022/03/17 00:39:20;;;;;;;27.15;18.75;;;11.50;99.90;;;;;;4961934;28;20877;-79
2022/03/17 00:41:46;;;;;;;24.63;18.30;;;11.50;99.90;;;;;;4961281;28;20042;-80
2022/03/17 00:44:11;;;;;;;26.10;17.98;;;11.40;99.90;;;;;;4970166;28;20387;-79
2022/03/17 00:46:38;;;;;;;25.40;18.20;;;11.40;99.90;;;;;;4970234;28;20030;-80
2022/03/17 00:49:04;;;;;;;27.40;20.27;;;11.40;99.90;;;;;;4969458;28;20019;-79
2022/03/17 00:51:30;;;;;;;26.92;18.67;;;11.40;99.90;;;;;;4964686;28;20031;-79
2022/03/17 00:53:55;;;;;;;26.48;19.17;;;11.40;99.90;;;;;;4966356;28;20368;-79
2022/03/17 00:56:21;;;;;;;28.00;20.08;;;11.30;99.90;;;;;;4957993;28;20050;-79
2022/03/17 00:58:48;;;;;;;26.95;17.88;;;11.30;99.90;;;;;;4960915;28;20035;-79
2022/03/17 01:01:17;;;;;;;26.98;18.33;;;11.30;99.90;;;;;;4965934;28;20031;-80
2022/03/17 01:03:44;;;;;;;27.20;19.38;;;11.30;99.90;;;;;;4955339;28;20480;-79
2022/03/17 01:06:10;;;;;;;28.50;18.45;;;11.30;99.90;;;;;;4965789;28;20584;-79
2022/03/17 01:08:36;;;;;;;27.77;19.90;;;11.30;99.90;;;;;;4967345;28;20070;-80
2022/03/17 01:11:03;;;;;;;28.55;20.10;;;11.20;99.90;;;;;;4961395;28;20118;-79
2022/03/17 01:13:29;;;;;;;28.80;19.65;;;11.20;99.90;;;;;;4961186;28;20031;-79
2022/03/17 01:15:54;;;;;;;27.92;20.17;;;11.20;99.90;;;;;;4960185;28;20038;-79
2022/03/17 01:18:21;;;;;;;29.55;19.77;;;11.20;99.90;;;;;;4964953;28;20502;-79
2022/03/17 01:20:47;;;;;;;26.00;18.42;;;11.10;99.90;;;;;;4964241;28;20074;-80
2022/03/17 01:23:13;;;;;;;25.15;18.38;;;11.10;99.90;;;;;;4956856;28;20415;-78
2022/03/17 01:25:38;;;;;;;25.50;17.42;;;11.10;99.90;;;;;;4965633;28;20054;-79
2022/03/17 01:28:04;;;;;;;28.90;19.88;;;11.10;99.90;;;;;;4964566;28;20069;-79
2022/03/17 01:30:30;;;;;;;30.33;19.45;;;11.10;99.90;;;;;;4961834;28;20074;-79
2022/03/17 01:32:55;;;;;;;29.00;20.75;;;11.10;99.90;;;;;;4966260;28;20022;-80
2022/03/17 01:35:21;;;;;;;28.85;18.23;;;11.10;99.90;;;;;;4970847;28;20133;-80
2022/03/17 01:37:46;;;;;;;30.13;19.75;;;11.10;99.90;;;;;;4968043;28;20026;-79
2022/03/17 01:40:12;;;;;;;25.92;18.88;;;11.20;99.90;;;;;;4963726;28;20026;-79
2022/03/17 01:42:39;;;;;;;27.25;19.60;;;11.20;99.90;;;;;;4963427;28;20471;-79
2022/03/17 01:45:06;;;;;;;26.63;18.70;;;11.30;99.90;;;;;;4969469;28;20042;-79
2022/03/17 01:47:33;;;;;;;26.98;18.65;;;11.30;99.90;;;;;;4972433;28;20045;-79
2022/03/17 01:50:07;;;;;;;28.92;20.48;;;11.30;99.90;;;;;;4973096;28;20114;-80
2022/03/17 01:52:33;;;;;;;26.63;19.27;;;11.30;99.90;;;;;;4969315;28;20070;-80
2022/03/17 01:54:58;;;;;;;29.30;19.70;;;11.30;99.90;;;;;;4958113;28;20070;-79
2022/03/17 01:57:24;;;;;;;27.75;19.02;;;11.30;99.90;;;;;;4958844;28;20436;-78
2022/03/17 01:59:52;;;;;;;29.08;19.75;;;11.30;99.90;;;;;;4962402;28;20035;-78
2022/03/17 02:02:18;;;;;;;26.80;19.80;;;11.30;99.90;;;;;;4957770;28;20019;-79
2022/03/17 02:04:46;;;;;;;28.63;19.92;;;11.30;99.90;;;;;;4957297;28;20074;-79
2022/03/17 02:07:13;;;;;;;27.77;18.70;;;11.30;99.90;;;;;;4967888;28;20458;-80
2022/03/17 02:09:39;;;;;;;29.30;20.88;;;11.30;99.90;;;;;;4967284;28;20066;-79
2022/03/17 02:14:51;;;;;;;31.15;20.25;;;11.30;99.90;;;;;;4958409;28;20041;-79
2022/03/17 02:17:18;;;;;;;29.02;19.77;;;11.30;99.90;;;;;;4961736;28;20042;-79
2022/03/17 02:19:44;;;;;;;29.98;19.75;;;11.30;99.90;;;;;;4958147;28;20103;-79
2022/03/17 02:22:12;;;;;;;28.00;19.55;;;11.30;99.90;;;;;;4966517;28;20106;-79
2022/03/17 02:27:25;;;;;;;27.98;19.70;;;11.20;99.90;;;;;;4971781;28;20037;-79
2022/03/17 02:29:51;;;;;;;27.92;19.23;;;11.20;99.90;;;;;;4965388;28;20038;-80
2022/03/17 02:32:17;;;;;;;27.63;18.95;;;11.30;99.90;;;;;;4960932;28;20497;-79
2022/03/17 02:34:44;;;;;;;27.73;18.27;;;11.20;99.90;;;;;;4966353;28;20122;-79
2022/03/17 02:37:09;;;;;;;32.45;19.17;;;11.30;99.90;;;;;;4972301;28;20105;-80
2022/03/17 02:39:37;;;;;;;29.90;20.80;;;11.30;99.90;;;;;;4971298;28;20471;-79
2022/03/17 02:42:03;;;;;;;27.33;19.10;;;11.30;99.90;;;;;;4960328;28;20407;-79
2022/03/17 02:44:28;;;;;;;29.45;18.48;;;11.30;99.90;;;;;;4959958;28;20031;-79
2022/03/17 02:46:54;;;;;;;28.80;19.30;;;11.40;99.90;;;;;;4969807;28;20062;-80
2022/03/17 02:49:19;;;;;;;30.08;20.38;;;11.40;99.90;;;;;;4973308;28;20069;-79
2022/03/17 02:51:46;;;;;;;31.38;19.73;;;11.40;99.90;;;;;;4969727;28;20046;-80
2022/03/17 02:54:11;;;;;;;29.27;19.67;;;11.50;99.90;;;;;;4957622;28;20399;-79
2022/03/17 02:56:37;;;;;;;33.53;20.65;;;11.50;99.90;;;;;;4966696;28;20030;-79
2022/03/17 02:59:03;;;;;;;32.70;19.90;;;11.50;99.90;;;;;;4959518;28;20031;-79
2022/03/17 03:01:28;;;;;;;33.65;20.42;;;11.50;99.90;;;;;;4959682;28;20047;-79
2022/03/17 03:03:53;;;;;;;33.88;20.70;;;11.60;99.90;;;;;;4958829;28;20102;-80
2022/03/17 03:06:19;;;;;;;30.27;19.52;;;11.60;99.90;;;;;;4960376;28;20037;-80
2022/03/17 03:08:44;;;;;;;31.98;21.17;;;11.60;99.90;;;;;;4963061;28;20039;-80
2022/03/17 03:11:10;;;;;;;32.28;19.90;;;11.60;99.90;;;;;;4957905;28;20051;-79
2022/03/17 03:13:36;;;;;;;33.15;20.02;;;11.60;99.90;;;;;;4973352;28;20037;-80
2022/03/17 03:16:03;;;;;;;30.98;20.15;;;11.60;99.90;;;;;;4968044;28;20049;-80
2022/03/17 03:18:28;;;;;;;42.00;25.02;;;11.60;99.90;;;;;;4965939;28;20042;-80
2022/03/17 03:20:54;;;;;;;38.42;22.05;;;11.60;99.90;;;;;;4957126;28;20042;-78
2022/03/17 03:23:20;;;;;;;36.35;23.30;;;11.50;99.90;;;;;;4966252;28;20023;-79
2022/03/17 03:25:45;;;;;;;35.85;23.35;;;11.50;99.90;;;;;;4956342;28;20115;-79
2022/03/17 03:28:12;;;;;;;38.47;24.25;;;11.50;99.90;;;;;;4964955;28;20045;-79
2022/03/17 03:30:38;;;;;;;37.25;22.83;;;11.40;99.90;;;;;;4964466;28;20034;-79
2022/03/17 03:33:06;;;;;;;26.63;16.85;;;11.30;99.90;;;;;;4958212;28;20046;-79
2022/03/17 03:38:17;;;;;;;18.90;13.00;;;11.00;99.90;;;;;;4968863;28;20073;-79
2022/03/17 03:40:42;;;;;;;20.23;12.57;;;10.80;99.90;;;;;;4972200;28;20090;-79
2022/03/17 03:43:08;;;;;;;17.90;12.68;;;10.60;99.90;;;;;;4962207;28;20042;-79
2022/03/17 03:45:33;;;;;;;20.52;13.70;;;10.50;99.90;;;;;;4962854;28;20454;-79
2022/03/17 03:47:59;;;;;;;19.52;14.57;;;10.40;99.90;;;;;;4971788;28;20031;-79
2022/03/17 03:50:25;;;;;;;21.45;12.65;;;10.30;99.90;;;;;;4961412;28;20475;-79
2022/03/17 03:52:51;;;;;;;20.92;14.43;;;10.30;99.90;;;;;;4964065;28;20039;-79
2022/03/17 03:55:17;;;;;;;18.08;12.65;;;10.30;99.90;;;;;;4958837;28;20522;-79
2022/03/17 03:57:42;;;;;;;17.10;10.63;;;10.20;99.90;;;;;;4957374;28;20078;-79
2022/03/17 04:02:51;;;;;;;6.13;3.13;;;10.00;99.90;;;;;;4959731;28;20038;-77
2022/03/17 04:05:18;;;;;;;6.53;2.67;;;9.80;99.90;;;;;;4963796;28;20058;-77
2022/03/17 04:07:44;;;;;;;5.15;2.45;;;9.60;99.90;;;;;;4966729;28;20109;-79
2022/03/17 04:10:09;;;;;;;5.32;2.63;;;9.50;99.90;;;;;;4965846;28;20062;-78
2022/03/17 04:12:35;;;;;;;9.20;3.30;;;9.40;99.90;;;;;;4966635;28;20035;-79
2022/03/17 04:15:00;;;;;;;7.15;2.95;;;9.30;99.90;;;;;;4962327;28;20459;-78
2022/03/17 04:17:26;;;;;;;9.85;2.83;;;9.30;99.90;;;;;;4963689;28;20503;-78
2022/03/17 04:19:52;;;;;;;5.78;2.67;;;9.20;99.90;;;;;;4959680;28;20089;-78
2022/03/17 04:22:17;;;;;;;15.60;5.55;;;9.20;99.90;;;;;;4964998;28;20027;-79
2022/03/17 04:24:43;;;;;;;6.18;3.38;;;9.20;99.90;;;;;;4961302;28;20622;-79
2022/03/17 04:27:08;;;;;;;6.22;3.38;;;9.10;99.90;;;;;;4966799;28;20027;-78
2022/03/17 04:29:34;;;;;;;7.85;3.50;;;9.10;99.90;;;;;;4968735;28;20038;-78
2022/03/17 04:31:59;;;;;;;6.45;3.60;;;9.10;99.90;;;;;;4962729;28;20458;-79
2022/03/17 04:34:25;;;;;;;11.70;4.22;;;9.00;99.90;;;;;;4964111;28;20095;-78
2022/03/17 04:36:51;;;;;;;8.93;4.13;;;9.00;99.90;;;;;;4960315;28;20174;-78
2022/03/17 04:39:16;;;;;;;8.52;3.97;;;9.00;99.90;;;;;;4963227;28;20027;-78
2022/03/17 04:41:42;;;;;;;11.65;5.25;;;9.00;99.90;;;;;;4971808;28;20446;-78
2022/03/17 04:44:08;;;;;;;11.60;5.28;;;8.90;99.90;;;;;;4964552;28;20020;-78
2022/03/17 04:46:34;;;;;;;12.05;6.90;;;9.00;99.90;;;;;;4963241;28;20039;-78
2022/03/17 04:49:00;;;;;;;13.55;8.00;;;8.90;99.90;;;;;;4962262;28;20558;-78
2022/03/17 04:51:26;;;;;;;14.60;7.65;;;8.90;99.90;;;;;;4963792;28;20113;-78
2022/03/17 04:53:51;;;;;;;13.88;8.95;;;8.90;99.90;;;;;;4964625;28;20023;-78
2022/03/17 04:56:17;;;;;;;15.93;10.07;;;8.90;99.90;;;;;;4965618;28;20046;-78
2022/03/17 04:58:44;;;;;;;16.30;10.18;;;8.90;99.90;;;;;;4963311;28;20046;-79
2022/03/17 05:01:14;;;;;;;17.25;9.30;;;8.90;99.90;;;;;;4967674;28;20034;-78
2022/03/17 05:03:41;;;;;;;20.85;10.85;;;8.80;99.90;;;;;;4966131;28;20058;-78
2022/03/17 05:06:09;;;;;;;20.17;10.93;;;8.80;99.90;;;;;;4967192;28;20467;-78
2022/03/17 05:08:35;;;;;;;22.13;12.48;;;8.80;99.90;;;;;;4966216;28;20031;-78
2022/03/17 05:11:02;;;;;;;20.00;12.18;;;8.70;99.90;;;;;;4965687;28;20047;-77
2022/03/17 05:13:28;;;;;;;24.20;13.05;;;8.80;99.90;;;;;;4966600;28;20081;-78
2022/03/17 05:15:54;;;;;;;19.08;11.05;;;8.70;99.90;;;;;;4956651;28;20051;-79
2022/03/17 05:18:20;;;;;;;24.90;11.10;;;8.70;99.90;;;;;;4955705;28;20417;-79
2022/03/17 05:20:46;;;;;;;20.45;9.30;;;8.70;99.90;;;;;;4962183;28;20042;-78
2022/03/17 05:23:14;;;;;;;17.98;5.95;;;8.60;99.90;;;;;;4968299;28;20023;-78
2022/03/17 05:25:42;;;;;;;15.38;5.65;;;8.60;99.90;;;;;;4968689;28;20065;-78
2022/03/17 05:28:09;;;;;;;13.15;4.95;;;8.60;99.90;;;;;;4967364;28;20030;-77
2022/03/17 05:30:36;;;;;;;13.68;4.28;;;8.60;99.90;;;;;;4961567;28;20035;-78
2022/03/17 05:33:02;;;;;;;11.80;2.83;;;8.50;99.90;;;;;;4964571;28;20183;-78
2022/03/17 05:35:28;;;;;;;12.35;3.10;;;8.50;99.90;;;;;;4957335;28;20074;-79
2022/03/17 05:37:54;;;;;;;8.82;3.05;;;8.40;99.90;;;;;;4958615;28;20058;-79
2022/03/17 05:40:21;;;;;;;11.40;2.17;;;8.50;99.90;;;;;;4954689;28;20039;-79
2022/03/17 05:42:50;;;;;;;9.68;2.47;;;8.40;99.90;;;;;;4962808;28;20039;-78
2022/03/17 05:45:16;;;;;;;8.93;2.58;;;8.40;99.90;;;;;;4968815;28;20038;-79
2022/03/17 05:47:44;;;;;;;10.82;1.80;;;8.40;99.90;;;;;;4969661;28;20043;-78
2022/03/17 05:50:13;;;;;;;11.48;2.33;;;8.40;99.90;;;;;;4969014;28;20031;-79
2022/03/17 05:52:39;;;;;;;15.05;2.00;;;8.40;99.90;;;;;;4973277;28;20047;-79
2022/03/17 05:55:06;;;;;;;19.88;2.50;;;8.40;99.90;;;;;;4971124;28;20026;-79
2022/03/17 05:57:34;;;;;;;21.45;3.25;;;8.30;99.90;;;;;;4958205;28;20113;-79
2022/03/17 06:00:00;;;;;;;7.80;1.90;;;8.30;99.90;;;;;;4966390;28;20092;-79
2022/03/17 06:02:25;;;;;;;8.70;1.60;;;8.30;99.90;;;;;;4954601;28;20030;-77
2022/03/17 06:04:51;;;;;;;8.52;1.75;;;8.30;99.90;;;;;;4955520;28;20083;-77
2022/03/17 06:07:16;;;;;;;12.95;1.95;;;8.30;99.90;;;;;;4953715;28;20415;-78
2022/03/17 06:09:42;;;;;;;9.02;1.63;;;8.20;99.90;;;;;;4963693;28;20023;-78
2022/03/17 06:12:09;;;;;;;7.55;1.30;;;8.20;99.90;;;;;;4960788;28;20054;-79
2022/03/17 06:14:34;;;;;;;10.73;1.20;;;8.20;99.90;;;;;;4959844;28;20144;-79
2022/03/17 06:17:00;;;;;;;7.55;1.23;;;8.20;99.90;;;;;;4957160;28;20174;-78
2022/03/17 06:19:26;;;;;;;5.40;0.85;;;8.20;99.90;;;;;;4961433;28;20046;-79
2022/03/17 06:21:51;;;;;;;9.60;1.33;;;8.20;99.90;;;;;;4963277;28;20045;-78
2022/03/17 06:24:17;;;;;;;4.43;0.90;;;8.20;99.90;;;;;;4960731;28;20475;-77
2022/03/17 06:26:43;;;;;;;8.18;0.80;;;8.20;99.90;;;;;;4963855;28;20111;-78
2022/03/17 06:29:08;;;;;;;7.38;1.33;;;8.20;99.90;;;;;;4956634;28;20406;-79
2022/03/17 06:31:36;;;;;;;9.73;1.55;;;8.20;99.90;;;;;;4956328;28;20035;-80
2022/03/17 06:34:02;;;;;;;7.10;0.80;;;8.20;99.90;;;;;;4963906;28;20115;-80
2022/03/17 06:36:27;;;;;;;7.82;0.95;;;8.20;99.90;;;;;;4971587;28;20126;-80
2022/03/17 06:38:53;;;;;;;8.55;1.60;;;8.20;99.90;;;;;;4968048;28;20034;-81
2022/03/17 06:41:18;;;;;;;10.45;1.30;;;8.20;99.90;;;;;;4959461;28;20035;-81
2022/03/17 06:43:44;;;;;;;11.15;1.75;;;8.10;99.90;;;;;;4966474;28;20487;-81
2022/03/17 06:46:09;;;;;;;13.27;1.45;;;8.10;99.90;;;;;;4968496;28;20041;-82
2022/03/17 06:48:35;;;;;;;13.05;1.85;;;8.10;99.90;;;;;;4963784;28;20023;-81
2022/03/17 06:51:00;;;;;;;11.50;1.98;;;8.00;99.90;;;;;;4974080;28;20023;-80
2022/03/17 06:53:26;;;;;;;14.63;1.45;;;8.00;99.90;;;;;;4969716;28;20027;-81
2022/03/17 06:55:52;;;;;;;11.95;1.17;;;8.00;99.90;;;;;;4966373;28;20442;-80
2022/03/17 06:58:18;;;;;;;14.15;2.00;;;8.10;99.90;;;;;;4954294;28;20030;-80
2022/03/17 07:00:43;;;;;;;9.73;1.00;;;8.10;99.90;;;;;;4960669;28;20507;-79
2022/03/17 07:03:09;;;;;;;8.13;0.93;;;8.20;99.90;;;;;;4959861;28;20092;-79
2022/03/17 07:05:34;;;;;;;14.63;1.65;;;8.20;99.90;;;;;;4967361;28;20121;-79
2022/03/17 07:08:00;;;;;;;10.68;0.95;;;8.20;99.90;;;;;;4969594;28;20110;-78
2022/03/17 07:10:27;;;;;;;16.02;0.95;;;8.20;99.90;;;;;;4967742;28;20058;-80
2022/03/17 07:12:53;;;;;;;13.80;1.15;;;8.20;99.90;;;;;;4972101;28;20546;-79
2022/03/17 07:15:19;;;;;;;13.02;1.30;;;8.30;99.90;;;;;;4968552;28;20043;-79
2022/03/17 07:17:45;;;;;;;15.23;0.93;;;8.30;99.90;;;;;;4969659;28;20092;-79
2022/03/17 07:20:15;;;;;;;12.50;1.10;;;8.20;99.90;;;;;;4963471;28;20038;-79
2022/03/17 07:22:43;;;;;;;14.40;0.90;;;8.20;99.90;;;;;;4974262;28;20023;-79
2022/03/17 07:25:10;;;;;;;8.90;0.70;;;8.20;99.90;;;;;;4965232;28;20031;-80
2022/03/17 07:27:41;;;;;;;12.70;0.73;;;8.30;99.90;;;;;;4969238;28;20038;-80
2022/03/17 07:30:11;;;;;;;7.88;0.70;;;8.30;99.90;;;;;;4968373;28;20027;-80
2022/03/17 07:32:38;;;;;;;12.73;0.63;;;8.30;99.90;;;;;;4967052;28;20078;-80
2022/03/17 07:35:05;;;;;;;10.48;0.60;;;8.30;99.90;;;;;;4956221;28;20533;-79
2022/03/17 07:37:30;;;;;;;8.75;1.08;;;8.20;99.90;;;;;;4956138;28;20119;-80
2022/03/17 07:39:56;;;;;;;11.00;0.70;;;8.20;99.90;;;;;;4958874;28;20105;-79
2022/03/17 07:42:21;;;;;;;14.40;0.80;;;8.20;99.90;;;;;;4960200;28;20057;-80
2022/03/17 07:44:47;;;;;;;12.18;0.60;;;8.20;99.90;;;;;;4967931;28;20026;-80
2022/03/17 07:47:13;;;;;;;13.18;0.80;;;8.20;99.90;;;;;;4964331;28;20027;-80
2022/03/17 07:49:39;;;;;;;11.48;0.60;;;8.30;99.90;;;;;;4969224;28;20034;-80
2022/03/17 07:52:05;;;;;;;15.27;0.82;;;8.30;99.90;;;;;;4968865;28;20037;-80
2022/03/17 07:54:31;;;;;;;11.55;0.77;;;8.30;99.90;;;;;;4963925;28;20070;-81
2022/03/17 07:56:57;;;;;;;9.68;0.70;;;8.40;99.90;;;;;;4957849;28;20043;-80
2022/03/17 07:59:24;;;;;;;12.55;0.60;;;8.40;99.90;;;;;;4966175;28;20028;-80
2022/03/17 08:01:50;;;;;;;12.10;0.60;;;8.40;99.90;;;;;;4966851;28;20031;-80
2022/03/17 08:04:16;;;;;;;16.58;1.20;;;8.40;99.90;;;;;;4966304;28;20039;-80
2022/03/17 08:06:42;;;;;;;8.13;1.02;;;8.40;99.90;;;;;;4969765;28;20034;-80
2022/03/17 08:09:08;;;;;;;13.48;0.65;;;8.40;99.90;;;;;;4963433;28;20026;-81
2022/03/17 08:11:33;;;;;;;17.25;1.15;;;8.30;99.90;;;;;;4967620;28;20051;-80
2022/03/17 08:13:59;;;;;;;5.85;0.68;;;8.20;99.90;;;;;;4965667;28;20046;-81
2022/03/17 08:16:24;;;;;;;10.68;0.70;;;8.10;99.90;;;;;;4961059;28;20035;-81
2022/03/17 08:18:50;;;;;;;15.45;0.95;;;8.10;99.90;;;;;;4960052;28;20028;-81
2022/03/17 08:21:17;;;;;;;6.90;0.50;;;8.10;99.90;;;;;;4966399;28;20085;-80
2022/03/17 08:23:43;;;;;;;7.72;0.60;;;8.20;99.90;;;;;;4966949;28;20506;-80
2022/03/17 08:26:09;;;;;;;10.13;1.13;;;8.30;99.90;;;;;;4955434;28;20479;-81
2022/03/17 08:28:35;;;;;;;10.57;0.60;;;8.40;99.90;;;;;;4958663;28;20042;-80
2022/03/17 08:31:00;;;;;;;8.73;0.47;;;8.50;99.90;;;;;;4958835;28;20070;-81
2022/03/17 08:33:26;;;;;;;9.48;0.60;;;8.60;99.90;;;;;;4964580;28;20027;-80
2022/03/17 08:35:52;;;;;;;11.25;1.05;;;8.60;99.90;;;;;;4970584;28;20039;-81
2022/03/17 08:38:18;;;;;;;12.27;0.90;;;8.70;99.90;;;;;;4963752;28;20368;-81
2022/03/17 08:40:43;;;;;;;8.82;0.68;;;8.70;99.90;;;;;;4961655;28;20501;-81
2022/03/17 08:43:10;;;;;;;9.68;0.80;;;8.80;99.90;;;;;;4967372;28;20027;-81
2022/03/17 08:51:07;;;;;;;7.35;0.60;;;8.90;99.90;;;;;;4964301;28;20529;-81
2022/03/17 08:53:33;;;;;;;8.25;0.70;;;9.00;99.90;;;;;;4968073;28;20035;-81
2022/03/17 08:56:01;;;;;;;9.50;0.70;;;9.00;99.90;;;;;;4972000;28;20114;-81
2022/03/17 08:58:27;;;;;;;8.77;0.60;;;9.00;99.90;;;;;;4971333;28;20026;-80
2022/03/17 09:00:54;;;;;;;11.10;0.77;;;9.10;99.90;;;;;;4969985;28;20042;-81
2022/03/17 09:03:19;;;;;;;11.20;0.60;;;9.20;99.90;;;;;;4954711;28;20435;-81
2022/03/17 09:05:45;;;;;;;8.05;0.80;;;9.20;99.90;;;;;;4970601;28;20102;-81
2022/03/17 09:08:11;;;;;;;9.82;0.60;;;9.20;99.90;;;;;;4965557;28;20027;-81
2022/03/17 09:10:40;;;;;;;8.55;0.63;;;9.30;99.90;;;;;;4961450;28;20051;-80
2022/03/17 09:13:07;;;;;;;10.77;0.70;;;9.30;99.90;;;;;;4963346;28;20039;-80
2022/03/17 09:15:40;;;;;;;8.32;0.50;;;9.30;99.90;;;;;;4959484;28;20117;-80
2022/03/17 09:18:08;;;;;;;9.13;0.73;;;9.40;99.90;;;;;;4965511;28;20575;-81
2022/03/17 09:20:35;;;;;;;6.88;0.90;;;9.40;99.90;;;;;;4969280;28;20499;-80
2022/03/17 09:23:02;;;;;;;10.70;0.73;;;9.50;99.90;;;;;;4961446;28;20019;-79
2022/03/17 09:25:28;;;;;;;9.80;0.60;;;9.50;99.90;;;;;;4958813;28;20826;-79
2022/03/17 09:27:55;;;;;;;9.48;0.60;;;9.50;99.90;;;;;;4970766;28;20115;-79
2022/03/17 09:30:22;;;;;;;6.25;0.47;;;9.50;99.90;;;;;;4965344;28;20130;-79
2022/03/17 09:32:48;;;;;;;9.30;0.70;;;9.50;99.90;;;;;;4967603;28;20042;-79
2022/03/17 09:35:14;;;;;;;5.18;0.52;;;9.50;99.90;;;;;;4966750;28;20115;-79
2022/03/17 09:37:41;;;;;;;8.82;0.70;;;9.40;99.90;;;;;;4967649;28;20038;-79
2022/03/17 09:40:08;;;;;;;10.07;1.08;;;9.50;99.90;;;;;;4966266;28;20035;-79
2022/03/17 09:42:34;;;;;;;10.90;0.70;;;9.50;99.90;;;;;;4970409;28;20045;-78
2022/03/17 09:45:01;;;;;;;7.95;0.70;;;9.50;99.90;;;;;;4956605;28;20031;-79
2022/03/17 09:47:28;;;;;;;10.35;0.68;;;9.50;99.90;;;;;;4963231;28;20041;-79
2022/03/17 09:49:56;;;;;;;11.38;0.65;;;9.50;99.90;;;;;;4967660;28;20038;-79
2022/03/17 09:52:23;;;;;;;8.52;0.50;;;9.50;99.90;;;;;;4963510;28;20047;-80
2022/03/17 09:54:51;;;;;;;7.88;0.82;;;9.50;99.90;;;;;;4965270;28;20034;-80
2022/03/17 09:57:17;;;;;;;11.82;0.90;;;9.50;99.90;;;;;;4968183;28;20078;-80
2022/03/17 09:59:56;;;;;;;9.05;0.50;;;9.40;99.90;;;;;;4968274;28;20448;-79
2022/03/17 10:02:22;;;;;;;6.40;0.50;;;9.40;99.90;;;;;;4968403;28;20090;-80
2022/03/17 10:04:48;;;;;;;7.93;0.70;;;9.40;99.90;;;;;;4975639;28;20026;-80
2022/03/17 10:07:17;;;;;;;14.48;1.10;;;9.30;99.90;;;;;;4964099;28;20399;-79
2022/03/17 10:09:43;;;;;;;7.18;0.57;;;9.30;99.90;;;;;;4971699;28;20034;-79
2022/03/17 10:12:10;;;;;;;7.70;0.50;;;9.20;99.90;;;;;;4972396;28;20049;-79
2022/03/17 10:14:46;;;;;;;5.45;0.45;;;9.20;99.90;;;;;;4967460;28;20383;-79
2022/03/17 10:17:32;;;;;;;7.00;0.75;;;9.30;99.90;;;;;;4963091;28;20066;-79
2022/03/17 10:20:22;;;;;;;6.63;0.45;;;9.30;99.90;;;;;;4969438;28;20483;-80
2022/03/17 10:23:01;;;;;;;9.90;0.85;;;9.30;99.90;;;;;;4973339;28;20125;-80
2022/03/17 10:25:31;;;;;;;7.65;0.40;;;9.30;99.90;;;;;;4972382;28;20102;-80
2022/03/17 10:27:57;;;;;;;6.40;0.47;;;9.30;99.90;;;;;;4966566;28;20034;-80
2022/03/17 10:30:32;;;;;;;7.78;0.60;;;9.40;99.90;;;;;;4974010;28;20027;-79
2022/03/17 10:33:15;;;;;;;4.38;0.40;;;9.40;99.90;;;;;;4972366;28;20039;-80
2022/03/17 10:35:45;;;;;;;6.47;0.47;;;9.40;99.90;;;;;;4965238;28;20039;-80
2022/03/17 10:38:16;;;;;;;5.45;0.40;;;9.40;99.90;;;;;;4973151;28;20027;-79
2022/03/17 10:40:44;;;;;;;4.95;0.43;;;9.40;99.90;;;;;;4965839;28;20034;-79
2022/03/17 10:43:23;;;;;;;9.25;0.50;;;9.40;99.90;;;;;;4968798;28;20543;-80
2022/03/17 10:46:06;;;;;;;9.48;0.57;;;9.40;99.90;;;;;;4974858;28;20031;-80
2022/03/17 10:48:31;;;;;;;4.85;0.65;;;9.50;99.90;;;;;;4961353;28;20106;-79
2022/03/17 10:50:57;;;;;;;4.78;0.60;;;9.50;99.90;;;;;;4965485;28;20031;-79
2022/03/17 10:53:31;;;;;;;5.38;0.57;;;9.60;99.90;;;;;;4973156;28;20154;-80
2022/03/17 10:56:17;;;;;;;10.95;0.50;;;9.70;99.90;;;;;;4962313;28;20039;-80
2022/03/17 10:58:43;;;;;;;7.88;0.60;;;9.80;99.90;;;;;;4970898;28;20121;-79
2022/03/17 11:01:10;;;;;;;9.25;0.70;;;9.70;99.90;;;;;;4968556;28;20114;-80
2022/03/17 11:03:35;;;;;;;9.18;0.50;;;9.80;99.90;;;;;;4962035;28;20054;-80
2022/03/17 11:06:03;;;;;;;6.53;0.50;;;9.80;99.80;;;;;;4969808;28;20069;-79
2022/03/17 11:08:31;;;;;;;6.13;0.70;;;9.70;99.90;;;;;;4964800;28;20031;-80
2022/03/17 11:11:00;;;;;;;8.68;0.80;;;9.70;99.80;;;;;;4970134;28;20491;-80
2022/03/17 11:13:26;;;;;;;6.72;0.50;;;9.70;99.90;;;;;;4968099;28;20062;-80
2022/03/17 11:15:59;;;;;;;8.30;0.80;;;9.80;99.90;;;;;;4966138;28;20125;-80
2022/03/17 11:18:24;;;;;;;;;;;9.90;99.90;;;;;;4963190;28;20047;-80
2022/03/17 11:21:25;;;;;;;9.73;0.80;;;9.90;99.80;;;;;;4968887;28;20009;-80
2022/03/17 11:24:07;;;;;;;6.88;0.75;;;10.00;99.90;;;;;;4965651;28;20042;-80
2022/03/17 11:26:36;;;;;;;10.40;0.87;;;10.10;99.90;;;;;;4974444;28;20031;-80
2022/03/17 11:29:07;;;;;;;7.00;0.68;;;10.20;99.90;;;;;;4973957;28;20078;-80
2022/03/17 11:31:51;;;;;;;5.43;0.77;;;10.30;99.90;;;;;;4963069;28;20471;-81
2022/03/17 11:34:43;;;;;;;4.80;0.60;;;10.30;99.90;;;;;;4969983;28;20022;-80
2022/03/17 11:37:16;;;;;;;2.75;0.50;;;10.40;99.90;;;;;;4969219;28;20045;-80
2022/03/17 11:39:58;;;;;;;5.05;0.50;;;10.40;99.70;;;;;;4966135;28;20478;-81
2022/03/17 11:42:44;;;;;;;3.88;0.70;;;10.40;99.20;;;;;;4965036;28;20038;-80
2022/03/17 11:45:21;;;;;;;3.95;0.40;;;10.40;98.50;;;;;;4961517;28;20038;-81
2022/03/17 11:47:54;;;;;;;4.90;0.60;;;10.30;98.20;;;;;;4973681;28;20023;-80
2022/03/17 11:50:27;;;;;;;2.85;0.50;;;10.30;98.40;;;;;;4959174;28;20158;-80
2022/03/17 11:53:00;;;;;;;4.28;0.47;;;10.30;98.30;;;;;;4971698;28;20512;-79
2022/03/17 11:55:46;;;;;;;4.82;0.50;;;10.40;97.50;;;;;;4964790;28;20042;-77
2022/03/17 11:58:25;;;;;;;2.75;0.30;;;10.50;97.30;;;;;;4966515;28;20042;-80
2022/03/17 12:01:03;;;;;;;4.38;0.60;;;10.50;97.10;;;;;;4971331;28;20101;-80
2022/03/17 12:03:37;;;;;;;6.10;0.70;;;10.60;96.10;;;;;;4966310;28;20055;-81
2022/03/17 12:06:07;;;;;;;3.60;0.40;;;10.50;95.10;;;;;;4968955;28;20045;-80
2022/03/17 12:08:50;;;;;;;8.80;0.60;;;10.50;95.10;;;;;;4973295;28;20390;-79
2022/03/17 12:11:18;;;;;;;4.50;0.40;;;10.60;95.20;;;;;;4961587;28;20054;-78
2022/03/17 12:14:22;;;;;;;4.63;0.35;;;10.60;94.80;;;;;;4964152;28;20464;-80
2022/03/17 12:16:56;;;;;;;4.43;0.40;;;10.70;94.20;;;;;;4964582;28;20042;-80
2022/03/17 12:19:35;;;;;;;6.15;0.60;;;10.70;93.80;;;;;;4964957;28;20542;-81
2022/03/17 12:22:06;;;;;;;5.70;0.60;;;10.80;93.70;;;;;;4970676;28;20039;-80
2022/03/17 12:24:51;;;;;;;4.20;0.52;;;10.90;93.80;;;;;;4958285;28;20043;-80
2022/03/17 12:27:35;;;;;;;11.82;0.70;;;10.90;93.30;;;;;;4965269;28;20073;-80
2022/03/17 12:30:14;;;;;;;5.50;0.80;;;10.70;93.20;;;;;;4972339;28;20050;-80
2022/03/17 12:32:51;;;;;;;5.13;0.50;;;10.70;93.40;;;;;;4969045;28;20025;-80
2022/03/17 12:35:19;;;;;;;2.63;0.40;;;10.70;93.20;;;;;;4968824;28;20035;-80
2022/03/17 12:37:45;;;;;;;4.35;0.50;;;10.80;93.10;;;;;;4964767;28;20055;-78
2022/03/17 12:40:18;;;;;;;6.93;0.40;;;10.80;92.80;;;;;;4970509;28;20109;-80
2022/03/17 12:42:46;;;;;;;7.22;0.80;;;10.90;92.20;;;;;;4960930;28;20031;-80
2022/03/17 12:45:17;;;;;;;4.80;0.88;;;10.90;91.90;;;;;;4972318;28;20763;-81
2022/03/17 12:47:48;;;;;;;9.85;1.05;;;10.90;91.80;;;;;;4972182;28;20019;-81
2022/03/17 12:50:18;;;;;;;7.22;0.60;;;10.90;91.60;;;;;;4958380;28;20055;-81
2022/03/17 12:52:46;;;;;;;4.90;0.60;;;10.90;91.70;;;;;;4968374;28;20045;-81
2022/03/17 12:55:14;;;;;;;3.70;0.52;;;11.00;90.90;;;;;;4972326;28;20037;-81
2022/03/17 12:57:40;;;;;;;5.78;0.75;;;11.00;90.50;;;;;;4971074;28;20027;-81
2022/03/17 13:00:17;;;;;;;5.20;0.52;;;10.90;90.60;;;;;;4957916;28;20106;-81
2022/03/17 13:02:54;;;;;;;5.20;0.60;;;11.00;91.00;;;;;;4970017;28;20373;-80